sensor_id;sensor_type;location;lat;lon;timestamp;pressure;altitude;pressure_sealevel;temperature;humidity
37068;BME280;22982;42.848;25.468;2023-02-11T00:04:47;98057.66;;;-12.81;100.00
37068;BME280;22982;42.848;25.468;2023-02-11T00:09:49;98015.22;;;-13.02;100.00
37068;BME280;22982;42.848;25.468;2023-02-11T00:14:52;98076.00;;;-12.56;100.00
37068;BME280;22982;42.848;25.468;2023-02-11T00:19:54;98057.31;;;-12.87;99.06
37068;BME280;22982;42.848;25.468;2023-02-11T00:24:56;98066.41;;;-12.76;98.41
37068;BME280;22982;42.848;25.468;2023-02-11T00:29:58;98062.50;;;-12.71;96.42
37068;BME280;22982;42.848;25.468;2023-02-11T00:35:04;98068.09;;;-12.62;94.28
37068;BME280;22982;42.848;25.468;2023-02-11T00:40:07;98071.13;;;-12.96;93.82
37068;BME280;22982;42.848;25.468;2023-02-11T00:45:09;98064.19;;;-12.85;94.29
37068;BME280;22982;42.848;25.468;2023-02-11T00:50:12;98053.69;;;-13.06;93.93
37068;BME280;22982;42.848;25.468;2023-02-11T00:55:15;98063.69;;;-12.79;95.36
37068;BME280;22982;42.848;25.468;2023-02-11T01:00:17;98036.16;;;-12.89;94.34
37068;BME280;22982;42.848;25.468;2023-02-11T01:05:20;98057.81;;;-12.93;94.52
37068;BME280;22982;42.848;25.468;2023-02-11T01:10:23;98054.78;;;-13.16;95.42
37068;BME280;22982;42.848;25.468;2023-02-11T01:15:26;98035.50;;;-13.29;94.60
37068;BME280;22982;42.848;25.468;2023-02-11T01:20:30;98036.84;;;-13.20;94.09
37068;BME280;22982;42.848;25.468;2023-02-11T01:25:32;98038.47;;;-13.36;93.40
37068;BME280;22982;42.848;25.468;2023-02-11T01:30:34;98018.03;;;-13.25;92.75
37068;BME280;22982;42.848;25.468;2023-02-11T01:35:38;98003.19;;;-13.06;92.82
37068;BME280;22982;42.848;25.468;2023-02-11T01:40:46;98027.03;;;-13.01;92.76
37068;BME280;22982;42.848;25.468;2023-02-11T01:46:00;98027.75;;;-13.03;92.98
37068;BME280;22982;42.848;25.468;2023-02-11T01:51:12;97993.75;;;-13.23;92.35
37068;BME280;22982;42.848;25.468;2023-02-11T01:56:16;98005.94;;;-13.16;94.62
37068;BME280;22982;42.848;25.468;2023-02-11T02:01:40;98012.09;;;-12.98;94.14
37068;BME280;22982;42.848;25.468;2023-02-11T02:06:55;98008.28;;;-12.76;93.00
37068;BME280;22982;42.848;25.468;2023-02-11T02:12:01;98016.72;;;-12.76;92.96
37068;BME280;22982;42.848;25.468;2023-02-11T02:17:04;98021.41;;;-12.97;92.96
37068;BME280;22982;42.848;25.468;2023-02-11T02:23:04;98013.66;;;-12.85;93.31
37068;BME280;22982;42.848;25.468;2023-02-11T02:33:59;98010.94;;;-13.03;92.07
37068;BME280;22982;42.848;25.468;2023-02-11T02:39:31;98006.41;;;-12.94;92.45
37068;BME280;22982;42.848;25.468;2023-02-11T02:44:35;98005.53;;;-13.09;92.85
37068;BME280;22982;42.848;25.468;2023-02-11T02:49:37;98001.97;;;-12.98;92.67
37068;BME280;22982;42.848;25.468;2023-02-11T03:00:03;98026.19;;;-12.86;91.84
37068;BME280;22982;42.848;25.468;2023-02-11T03:05:14;97999.19;;;-13.02;91.70
37068;BME280;22982;42.848;25.468;2023-02-11T03:15:49;98025.94;;;-13.06;92.17
37068;BME280;22982;42.848;25.468;2023-02-11T03:20:53;98036.19;;;-13.03;91.91
37068;BME280;22982;42.848;25.468;2023-02-11T03:26:26;98005.44;;;-13.11;91.32
37068;BME280;22982;42.848;25.468;2023-02-11T03:31:35;98025.63;;;-13.11;91.74
37068;BME280;22982;42.848;25.468;2023-02-11T03:36:45;98026.00;;;-13.04;91.70
37068;BME280;22982;42.848;25.468;2023-02-11T03:41:51;98017.00;;;-13.14;90.67
37068;BME280;22982;42.848;25.468;2023-02-11T03:46:56;97994.41;;;-13.26;91.34
37068;BME280;22982;42.848;25.468;2023-02-11T03:52:00;97998.94;;;-13.35;92.22
37068;BME280;22982;42.848;25.468;2023-02-11T03:57:04;97995.72;;;-13.61;92.45
37068;BME280;22982;42.848;25.468;2023-02-11T04:02:06;98010.34;;;-13.42;92.97
37068;BME280;22982;42.848;25.468;2023-02-11T04:07:11;98023.63;;;-13.16;91.52
37068;BME280;22982;42.848;25.468;2023-02-11T04:12:13;98028.25;;;-13.09;90.93
37068;BME280;22982;42.848;25.468;2023-02-11T04:17:16;98002.47;;;-13.18;90.46
37068;BME280;22982;42.848;25.468;2023-02-11T04:22:18;97999.66;;;-13.38;90.27
37068;BME280;22982;42.848;25.468;2023-02-11T04:27:20;97979.03;;;-13.31;90.24
37068;BME280;22982;42.848;25.468;2023-02-11T04:32:22;97995.38;;;-13.39;89.79
37068;BME280;22982;42.848;25.468;2023-02-11T04:37:25;97983.34;;;-13.28;90.15
37068;BME280;22982;42.848;25.468;2023-02-11T04:42:27;97994.63;;;-13.08;90.26
37068;BME280;22982;42.848;25.468;2023-02-11T04:47:29;97997.22;;;-13.21;90.96
37068;BME280;22982;42.848;25.468;2023-02-11T04:52:31;97982.16;;;-13.35;90.58
37068;BME280;22982;42.848;25.468;2023-02-11T04:57:34;97994.00;;;-13.34;90.34
37068;BME280;22982;42.848;25.468;2023-02-11T05:02:36;97973.16;;;-13.44;89.73
37068;BME280;22982;42.848;25.468;2023-02-11T05:07:38;97982.94;;;-13.36;88.24
37068;BME280;22982;42.848;25.468;2023-02-11T05:12:40;97975.09;;;-13.40;88.08
37068;BME280;22982;42.848;25.468;2023-02-11T05:17:42;97959.94;;;-13.82;88.74
37068;BME280;22982;42.848;25.468;2023-02-11T05:22:44;97982.25;;;-13.75;91.82
37068;BME280;22982;42.848;25.468;2023-02-11T05:27:47;97982.50;;;-13.57;90.98
37068;BME280;22982;42.848;25.468;2023-02-11T05:32:49;97999.09;;;-13.60;90.50
37068;BME280;22982;42.848;25.468;2023-02-11T05:37:51;97986.53;;;-13.74;91.41
37068;BME280;22982;42.848;25.468;2023-02-11T05:42:53;97999.09;;;-13.47;90.54
37068;BME280;22982;42.848;25.468;2023-02-11T05:47:56;97964.28;;;-13.53;89.33
37068;BME280;22982;42.848;25.468;2023-02-11T05:52:59;97993.13;;;-13.19;88.60
37068;BME280;22982;42.848;25.468;2023-02-11T05:58:01;97994.63;;;-13.08;88.30
37068;BME280;22982;42.848;25.468;2023-02-11T06:03:04;97972.72;;;-13.09;88.26
37068;BME280;22982;42.848;25.468;2023-02-11T06:08:06;97986.50;;;-12.89;87.11
37068;BME280;22982;42.848;25.468;2023-02-11T06:13:08;97982.06;;;-12.78;85.53
37068;BME280;22982;42.848;25.468;2023-02-11T06:18:10;97976.25;;;-12.62;84.96
37068;BME280;22982;42.848;25.468;2023-02-11T06:23:13;97958.47;;;-12.64;85.49
37068;BME280;22982;42.848;25.468;2023-02-11T06:28:15;97985.28;;;-12.36;85.11
37068;BME280;22982;42.848;25.468;2023-02-11T06:33:17;97960.00;;;-12.96;86.03
37068;BME280;22982;42.848;25.468;2023-02-11T06:38:19;97981.28;;;-12.47;87.99
37068;BME280;22982;42.848;25.468;2023-02-11T06:43:21;97963.06;;;-12.12;86.44
37068;BME280;22982;42.848;25.468;2023-02-11T06:48:24;97955.06;;;-12.03;86.63
37068;BME280;22982;42.848;25.468;2023-02-11T06:53:26;97974.47;;;-11.56;87.12
37068;BME280;22982;42.848;25.468;2023-02-11T06:58:28;97957.06;;;-11.33;86.19
37068;BME280;22982;42.848;25.468;2023-02-11T07:03:30;97940.59;;;-10.92;85.89
37068;BME280;22982;42.848;25.468;2023-02-11T07:08:33;97954.56;;;-10.12;83.92
37068;BME280;22982;42.848;25.468;2023-02-11T07:13:36;97947.97;;;-7.68;78.96
37068;BME280;22982;42.848;25.468;2023-02-11T07:18:38;97908.78;;;0.81;47.20
37068;BME280;22982;42.848;25.468;2023-02-11T07:23:41;97884.72;;;7.59;31.59
37068;BME280;22982;42.848;25.468;2023-02-11T07:28:44;97879.09;;;9.98;27.06
37068;BME280;22982;42.848;25.468;2023-02-11T07:33:46;97878.00;;;10.05;26.33
37068;BME280;22982;42.848;25.468;2023-02-11T07:38:49;97880.63;;;9.19;28.36
37068;BME280;22982;42.848;25.468;2023-02-11T07:43:51;97891.06;;;8.89;28.93
37068;BME280;22982;42.848;25.468;2023-02-11T07:48:54;97890.16;;;8.90;29.77
37068;BME280;22982;42.848;25.468;2023-02-11T07:53:58;97877.41;;;8.78;29.48
37068;BME280;22982;42.848;25.468;2023-02-11T07:59:02;97891.88;;;8.60;31.48
37068;BME280;22982;42.848;25.468;2023-02-11T08:04:04;97895.00;;;7.24;33.21
37068;BME280;22982;42.848;25.468;2023-02-11T08:09:07;97875.84;;;7.25;34.34
37068;BME280;22982;42.848;25.468;2023-02-11T08:14:11;97899.25;;;7.30;34.74
37068;BME280;22982;42.848;25.468;2023-02-11T08:19:15;97887.66;;;7.82;33.84
37068;BME280;22982;42.848;25.468;2023-02-11T08:24:17;97851.75;;;7.91;33.81
37068;BME280;22982;42.848;25.468;2023-02-11T08:29:19;97829.25;;;7.47;34.62
37068;BME280;22982;42.848;25.468;2023-02-11T08:34:22;97830.69;;;7.62;34.39
37068;BME280;22982;42.848;25.468;2023-02-11T08:39:24;97834.09;;;8.35;34.21
37068;BME280;22982;42.848;25.468;2023-02-11T08:44:26;97826.31;;;8.96;33.69
37068;BME280;22982;42.848;25.468;2023-02-11T08:49:28;97823.06;;;9.47;33.31
37068;BME280;22982;42.848;25.468;2023-02-11T08:54:32;97828.13;;;9.25;33.92
37068;BME280;22982;42.848;25.468;2023-02-11T08:59:34;97806.06;;;9.87;33.14
37068;BME280;22982;42.848;25.468;2023-02-11T09:04:38;97809.84;;;10.05;32.61
37068;BME280;22982;42.848;25.468;2023-02-11T09:09:41;97788.25;;;10.24;32.99
37068;BME280;22982;42.848;25.468;2023-02-11T09:14:43;97768.72;;;9.81;34.45
37068;BME280;22982;42.848;25.468;2023-02-11T09:19:45;97771.75;;;10.20;31.68
37068;BME280;22982;42.848;25.468;2023-02-11T09:24:47;97740.56;;;10.86;29.05
37068;BME280;22982;42.848;25.468;2023-02-11T09:29:50;97776.25;;;10.67;29.56
37068;BME280;22982;42.848;25.468;2023-02-11T09:34:52;97768.03;;;10.52;28.39
37068;BME280;22982;42.848;25.468;2023-02-11T09:39:54;97750.84;;;11.15;27.14
37068;BME280;22982;42.848;25.468;2023-02-11T09:44:58;97741.88;;;11.64;26.52
37068;BME280;22982;42.848;25.468;2023-02-11T09:50:05;97710.44;;;11.41;27.65
37068;BME280;22982;42.848;25.468;2023-02-11T09:55:30;97718.22;;;11.64;25.27
37068;BME280;22982;42.848;25.468;2023-02-11T10:06:04;97697.34;;;11.39;26.56
37068;BME280;22982;42.848;25.468;2023-02-11T10:11:29;97681.69;;;11.58;26.04
37068;BME280;22982;42.848;25.468;2023-02-11T10:22:24;97688.44;;;10.77;26.79
37068;BME280;22982;42.848;25.468;2023-02-11T10:27:34;97685.81;;;8.40;28.96
37068;BME280;22982;42.848;25.468;2023-02-11T10:37:55;97664.88;;;10.28;28.08
37068;BME280;22982;42.848;25.468;2023-02-11T10:43:02;97644.84;;;10.73;27.84
37068;BME280;22982;42.848;25.468;2023-02-11T10:48:34;97639.22;;;11.69;26.31
37068;BME280;22982;42.848;25.468;2023-02-11T10:53:28;97591.28;;;11.83;25.25
37068;BME280;22982;42.848;25.468;2023-02-11T10:58:42;97583.31;;;11.45;26.17
37068;BME280;22982;42.848;25.468;2023-02-11T11:03:48;97586.38;;;10.47;27.20
37068;BME280;22982;42.848;25.468;2023-02-11T11:08:50;97613.09;;;9.61;27.43
37068;BME280;22982;42.848;25.468;2023-02-11T11:24:26;97574.75;;;7.64;30.57
37068;BME280;22982;42.848;25.468;2023-02-11T11:29:42;97573.56;;;6.76;30.09
37068;BME280;22982;42.848;25.468;2023-02-11T11:35:25;97583.53;;;6.19;31.22
37068;BME280;22982;42.848;25.468;2023-02-11T11:40:31;97588.56;;;5.86;30.94
37068;BME280;22982;42.848;25.468;2023-02-11T11:45:33;97585.91;;;5.88;30.46
37068;BME280;22982;42.848;25.468;2023-02-11T11:50:41;97591.03;;;4.99;32.39
37068;BME280;22982;42.848;25.468;2023-02-11T11:56:04;97580.38;;;5.14;31.33
37068;BME280;22982;42.848;25.468;2023-02-11T12:06:37;97553.69;;;5.05;32.58
37068;BME280;22982;42.848;25.468;2023-02-11T12:17:02;97547.66;;;4.50;33.56
37068;BME280;22982;42.848;25.468;2023-02-11T12:22:50;97558.75;;;4.61;32.57
37068;BME280;22982;42.848;25.468;2023-02-11T12:33:21;97536.97;;;4.14;34.46
37068;BME280;22982;42.848;25.468;2023-02-11T12:43:37;97527.41;;;4.16;33.58
37068;BME280;22982;42.848;25.468;2023-02-11T12:54:19;97526.16;;;4.41;34.71
37068;BME280;22982;42.848;25.468;2023-02-11T12:59:50;97530.56;;;4.36;33.64
37068;BME280;22982;42.848;25.468;2023-02-11T13:05:02;97504.63;;;4.32;34.10
37068;BME280;22982;42.848;25.468;2023-02-11T13:15:23;97497.38;;;4.55;34.31
37068;BME280;22982;42.848;25.468;2023-02-11T13:20:34;97491.28;;;4.55;34.47
37068;BME280;22982;42.848;25.468;2023-02-11T13:31:03;97500.06;;;4.48;36.63
37068;BME280;22982;42.848;25.468;2023-02-11T13:36:11;97484.78;;;4.29;36.85
37068;BME280;22982;42.848;25.468;2023-02-11T13:41:32;97489.69;;;4.48;36.19
37068;BME280;22982;42.848;25.468;2023-02-11T13:46:51;97477.94;;;4.76;36.53
37068;BME280;22982;42.848;25.468;2023-02-11T13:51:56;97462.03;;;4.44;37.17
37068;BME280;22982;42.848;25.468;2023-02-11T13:57:26;97462.53;;;4.13;37.02
37068;BME280;22982;42.848;25.468;2023-02-11T14:02:33;97453.25;;;3.36;37.19
37068;BME280;22982;42.848;25.468;2023-02-11T14:13:29;97413.03;;;3.69;40.17
37068;BME280;22982;42.848;25.468;2023-02-11T14:23:46;97417.13;;;3.86;42.59
37068;BME280;22982;42.848;25.468;2023-02-11T14:39:21;97430.00;;;3.90;48.41
37068;BME280;22982;42.848;25.468;2023-02-11T14:44:29;97424.34;;;3.63;50.38
37068;BME280;22982;42.848;25.468;2023-02-11T14:49:37;97394.75;;;3.16;50.52
37068;BME280;22982;42.848;25.468;2023-02-11T14:54:41;97376.19;;;2.82;51.06
37068;BME280;22982;42.848;25.468;2023-02-11T14:59:58;97389.38;;;2.57;52.10
37068;BME280;22982;42.848;25.468;2023-02-11T15:15:31;97408.38;;;1.56;55.78
37068;BME280;22982;42.848;25.468;2023-02-11T15:20:40;97406.75;;;1.33;61.45
37068;BME280;22982;42.848;25.468;2023-02-11T15:25:43;97411.19;;;1.06;60.00
37068;BME280;22982;42.848;25.468;2023-02-11T15:31:04;97398.47;;;0.62;64.43
37068;BME280;22982;42.848;25.468;2023-02-11T15:36:15;97377.06;;;-0.02;66.88
37068;BME280;22982;42.848;25.468;2023-02-11T15:41:36;97398.56;;;-0.15;70.10
37068;BME280;22982;42.848;25.468;2023-02-11T15:46:39;97426.03;;;-0.30;71.98
37068;BME280;22982;42.848;25.468;2023-02-11T15:51:44;97407.03;;;-0.84;73.10
37068;BME280;22982;42.848;25.468;2023-02-11T15:56:51;97384.59;;;-1.16;76.12
37068;BME280;22982;42.848;25.468;2023-02-11T16:07:45;97418.72;;;-1.54;79.93
37068;BME280;22982;42.848;25.468;2023-02-11T16:13:16;97431.53;;;-1.65;81.10
37068;BME280;22982;42.848;25.468;2023-02-11T16:23:42;97442.44;;;-1.98;83.83
37068;BME280;22982;42.848;25.468;2023-02-11T16:28:50;97378.56;;;-2.56;85.02
37068;BME280;22982;42.848;25.468;2023-02-11T16:33:52;97385.47;;;-2.51;85.97
37068;BME280;22982;42.848;25.468;2023-02-11T16:38:54;97406.09;;;-2.41;86.06
37068;BME280;22982;42.848;25.468;2023-02-11T16:43:57;97425.78;;;-2.43;86.71
37068;BME280;22982;42.848;25.468;2023-02-11T16:54:27;97406.53;;;-2.82;88.86
37068;BME280;22982;42.848;25.468;2023-02-11T16:59:30;97410.84;;;-2.78;89.02
37068;BME280;22982;42.848;25.468;2023-02-11T17:04:32;97357.53;;;-3.07;89.36
37068;BME280;22982;42.848;25.468;2023-02-11T17:09:35;97374.66;;;-3.04;89.92
37068;BME280;22982;42.848;25.468;2023-02-11T17:14:37;97375.41;;;-3.13;90.62
37068;BME280;22982;42.848;25.468;2023-02-11T17:19:40;97381.28;;;-3.23;90.55
37068;BME280;22982;42.848;25.468;2023-02-11T17:24:42;97401.03;;;-3.18;90.49
37068;BME280;22982;42.848;25.468;2023-02-11T17:29:44;97386.38;;;-3.27;90.71
37068;BME280;22982;42.848;25.468;2023-02-11T17:34:46;97390.50;;;-3.41;89.99
37068;BME280;22982;42.848;25.468;2023-02-11T17:39:49;97397.25;;;-3.46;89.38
37068;BME280;22982;42.848;25.468;2023-02-11T17:44:51;97404.03;;;-3.50;89.48
37068;BME280;22982;42.848;25.468;2023-02-11T17:49:54;97381.69;;;-3.60;89.03
37068;BME280;22982;42.848;25.468;2023-02-11T17:54:56;97396.78;;;-3.80;91.00
37068;BME280;22982;42.848;25.468;2023-02-11T17:59:58;97386.13;;;-4.09;91.73
37068;BME280;22982;42.848;25.468;2023-02-11T18:05:01;97406.91;;;-3.89;91.62
37068;BME280;22982;42.848;25.468;2023-02-11T18:10:05;97420.22;;;-4.13;92.71
37068;BME280;22982;42.848;25.468;2023-02-11T18:15:07;97385.97;;;-4.70;94.01
37068;BME280;22982;42.848;25.468;2023-02-11T18:20:10;97419.47;;;-4.58;94.95
37068;BME280;22982;42.848;25.468;2023-02-11T18:25:13;97395.81;;;-4.92;97.85
37068;BME280;22982;42.848;25.468;2023-02-11T18:30:17;97424.16;;;-4.81;99.31
37068;BME280;22982;42.848;25.468;2023-02-11T18:35:20;97412.97;;;-4.88;100.00
37068;BME280;22982;42.848;25.468;2023-02-11T18:40:22;97404.28;;;-4.96;99.02
37068;BME280;22982;42.848;25.468;2023-02-11T18:45:24;97393.00;;;-5.07;100.00
37068;BME280;22982;42.848;25.468;2023-02-11T18:50:29;97390.25;;;-5.16;99.45
37068;BME280;22982;42.848;25.468;2023-02-11T18:55:32;97409.19;;;-5.49;100.00
37068;BME280;22982;42.848;25.468;2023-02-11T19:00:37;97409.69;;;-5.25;100.00
37068;BME280;22982;42.848;25.468;2023-02-11T19:05:48;97383.06;;;-5.36;100.00
37068;BME280;22982;42.848;25.468;2023-02-11T19:10:51;97407.59;;;-5.44;100.00
37068;BME280;22982;42.848;25.468;2023-02-11T19:15:53;97395.69;;;-5.83;100.00
37068;BME280;22982;42.848;25.468;2023-02-11T19:20:56;97385.00;;;-6.06;100.00
37068;BME280;22982;42.848;25.468;2023-02-11T19:26:00;97387.69;;;-6.00;100.00
37068;BME280;22982;42.848;25.468;2023-02-11T19:31:08;97393.84;;;-5.90;100.00
37068;BME280;22982;42.848;25.468;2023-02-11T19:36:10;97385.34;;;-5.89;100.00
37068;BME280;22982;42.848;25.468;2023-02-11T19:41:17;97360.13;;;-6.15;100.00
37068;BME280;22982;42.848;25.468;2023-02-11T19:46:24;97377.50;;;-5.99;100.00
37068;BME280;22982;42.848;25.468;2023-02-11T19:51:28;97401.00;;;-6.13;100.00
37068;BME280;22982;42.848;25.468;2023-02-11T19:56:31;97383.72;;;-6.60;100.00
37068;BME280;22982;42.848;25.468;2023-02-11T20:01:34;97353.91;;;-6.63;100.00
37068;BME280;22982;42.848;25.468;2023-02-11T20:06:37;97344.59;;;-6.61;100.00
37068;BME280;22982;42.848;25.468;2023-02-11T20:11:39;97370.59;;;-6.41;100.00
37068;BME280;22982;42.848;25.468;2023-02-11T20:16:42;97334.56;;;-6.53;100.00
37068;BME280;22982;42.848;25.468;2023-02-11T20:21:52;97360.69;;;-6.28;100.00
37068;BME280;22982;42.848;25.468;2023-02-11T20:26:56;97316.31;;;-6.70;100.00
37068;BME280;22982;42.848;25.468;2023-02-11T20:31:59;97288.81;;;-7.17;100.00
37068;BME280;22982;42.848;25.468;2023-02-11T20:37:01;97269.91;;;-7.25;100.00
37068;BME280;22982;42.848;25.468;2023-02-11T20:42:10;97314.84;;;-6.95;100.00
37068;BME280;22982;42.848;25.468;2023-02-11T20:47:12;97255.66;;;-7.18;100.00
37068;BME280;22982;42.848;25.468;2023-02-11T20:52:14;97286.19;;;-6.85;100.00
37068;BME280;22982;42.848;25.468;2023-02-11T20:57:17;97295.97;;;-6.67;100.00
37068;BME280;22982;42.848;25.468;2023-02-11T21:02:19;97282.91;;;-6.81;100.00
37068;BME280;22982;42.848;25.468;2023-02-11T21:07:25;97269.00;;;-6.92;100.00
37068;BME280;22982;42.848;25.468;2023-02-11T21:12:30;97220.97;;;-7.46;100.00
37068;BME280;22982;42.848;25.468;2023-02-11T21:17:32;97253.94;;;-7.53;100.00
37068;BME280;22982;42.848;25.468;2023-02-11T21:22:35;97225.25;;;-7.77;100.00
37068;BME280;22982;42.848;25.468;2023-02-11T21:27:37;97247.03;;;-7.57;100.00
37068;BME280;22982;42.848;25.468;2023-02-11T21:32:39;97233.53;;;-7.53;100.00
37068;BME280;22982;42.848;25.468;2023-02-11T21:37:42;97252.84;;;-7.29;100.00
37068;BME280;22982;42.848;25.468;2023-02-11T21:42:44;97229.75;;;-7.35;100.00
37068;BME280;22982;42.848;25.468;2023-02-11T21:47:46;97220.91;;;-7.15;100.00
37068;BME280;22982;42.848;25.468;2023-02-11T21:52:48;97215.41;;;-7.30;100.00
37068;BME280;22982;42.848;25.468;2023-02-11T21:57:51;97188.31;;;-7.61;100.00
37068;BME280;22982;42.848;25.468;2023-02-11T22:02:53;97180.03;;;-7.86;100.00
37068;BME280;22982;42.848;25.468;2023-02-11T22:07:55;97217.03;;;-7.67;100.00
37068;BME280;22982;42.848;25.468;2023-02-11T22:12:57;97172.81;;;-7.71;100.00
37068;BME280;22982;42.848;25.468;2023-02-11T22:17:59;97205.22;;;-7.30;100.00
37068;BME280;22982;42.848;25.468;2023-02-11T22:23:02;97187.16;;;-7.04;100.00
37068;BME280;22982;42.848;25.468;2023-02-11T22:28:04;97164.59;;;-6.87;100.00
37068;BME280;22982;42.848;25.468;2023-02-11T22:33:06;97183.69;;;-6.68;100.00
37068;BME280;22982;42.848;25.468;2023-02-11T22:38:09;97178.78;;;-6.61;100.00
37068;BME280;22982;42.848;25.468;2023-02-11T22:43:11;97182.38;;;-6.51;100.00
37068;BME280;22982;42.848;25.468;2023-02-11T22:48:13;97209.22;;;-6.27;100.00
37068;BME280;22982;42.848;25.468;2023-02-11T22:53:15;97182.72;;;-6.75;100.00
37068;BME280;22982;42.848;25.468;2023-02-11T22:58:18;97207.50;;;-6.69;100.00
37068;BME280;22982;42.848;25.468;2023-02-11T23:03:20;97189.06;;;-6.94;100.00
37068;BME280;22982;42.848;25.468;2023-02-11T23:08:22;97194.41;;;-6.45;100.00
37068;BME280;22982;42.848;25.468;2023-02-11T23:13:25;97178.66;;;-6.65;100.00
37068;BME280;22982;42.848;25.468;2023-02-11T23:18:27;97190.38;;;-6.36;100.00
37068;BME280;22982;42.848;25.468;2023-02-11T23:23:29;97169.84;;;-6.80;100.00
37068;BME280;22982;42.848;25.468;2023-02-11T23:28:31;97199.38;;;-6.51;100.00
37068;BME280;22982;42.848;25.468;2023-02-11T23:33:33;97181.19;;;-6.26;100.00
37068;BME280;22982;42.848;25.468;2023-02-11T23:38:36;97139.25;;;-6.39;100.00
37068;BME280;22982;42.848;25.468;2023-02-11T23:43:39;97170.91;;;-6.29;100.00
37068;BME280;22982;42.848;25.468;2023-02-11T23:48:41;97170.47;;;-6.08;100.00
37068;BME280;22982;42.848;25.468;2023-02-11T23:53:43;97136.28;;;-6.16;100.00
37068;BME280;22982;42.848;25.468;2023-02-11T23:58:51;97134.84;;;-6.02;100.00
